Lone Star Executive Airport
KCXO : rendu visible

Aérodrome :











RETROUVEZ-NOUS SUR...

 
LOGIN :

S'inscrire | Disclaimer

   EN    FR    IT 

 









Légende :    VFR   VFR Marginal   IFR   IFR Intensif   IFR Très Intensif
Visi : 
Plafond : 
>= 8 km
>= 3000ft
5 à 8 km
1000 à 3000 ft
1500m à 5 km
500 à 1000 ft
800 à 1500m
200 à 500 ft
< 800m
< 200 ft
Symboles :   Orages  Brouillard  Fortes neiges  Fortes précipitations  Vent > 20 kt






- Altitude de l'aérodrome : 245 ft


KCXO - Lone Star Executive

DERNIER METAR :
  • 231253Z 00000KT 10SM CLR 08/07 A3013 RMK AO2 SLP201 T00830072

METARs EXPIRÉS :
  • 231153Z 00000KT 10SM CLR 08/07 A3012 RMK AO2 SLP199 T00830067 10100 20078 55001
  • 231053Z 00000KT 10SM CLR 08/07 A3012 RMK AO2 SLP198 T00780072

TAF KCXO
Valide du 23 à 12h jusqu'au 24 à 12h UTC


231120Z 2312/2412 12005KT P6SM SKC
FM231700 15012KT P6SM SKC
FM240100 12006KT P6SM SKC



MET'MAP, la Météo Aéronautique d'un coup d'oeil ! - Copyright ORBIFLY Décembre 2007 - Disclaimer

ORBIFLY MET'MAP TEAM :

Programmation & Développement : Alexandra Zaïnal
Conception & Développement : Baudouin d'Aumeries
Co-Programmation & Développement : Marc-Olivier Méhu
Soutien technique & logistique : Manuel Goepfert

Contact : metmap@orbifly.com




SOURCES & CREDITS :

   NOAA       Earth
Advisory